createdAt,value
2023-07-22T00:00:39.883Z,14.82
2023-07-22T00:03:06.613Z,14.79
2023-07-22T00:05:33.255Z,14.75
2023-07-22T00:07:59.800Z,14.73
2023-07-22T00:10:26.387Z,14.69
2023-07-22T00:12:53.002Z,14.65
2023-07-22T00:15:21.538Z,14.63
2023-07-22T00:17:48.184Z,14.60
2023-07-22T00:20:15.210Z,14.59
2023-07-22T00:22:42.358Z,14.57
2023-07-22T00:25:11.639Z,14.56
2023-07-22T00:27:39.109Z,14.52
2023-07-22T00:30:07.737Z,14.49
2023-07-22T00:32:34.757Z,14.46
2023-07-22T00:35:01.594Z,14.43
2023-07-22T00:37:28.439Z,14.41
2023-07-22T00:39:56.113Z,14.37
2023-07-22T00:42:22.756Z,14.36
2023-07-22T00:44:49.304Z,14.35
2023-07-22T00:47:17.224Z,14.31
2023-07-22T00:49:44.382Z,14.28
2023-07-22T00:52:11.003Z,14.25
2023-07-22T00:54:37.788Z,14.21
2023-07-22T00:57:04.397Z,14.19
2023-07-22T00:59:31.406Z,14.18
2023-07-22T01:01:58.136Z,14.15
2023-07-22T01:04:26.321Z,14.15
2023-07-22T01:06:56.318Z,14.14
2023-07-22T01:09:22.927Z,14.13
2023-07-22T01:11:49.620Z,14.14
2023-07-22T01:14:16.385Z,14.15
2023-07-22T01:16:43.404Z,14.15
2023-07-22T01:19:13.940Z,14.17
2023-07-22T01:21:43.583Z,14.17
2023-07-22T01:24:10.265Z,14.19
2023-07-22T01:26:37.290Z,14.19
2023-07-22T01:29:07.735Z,14.18
2023-07-22T01:31:36.824Z,14.17
2023-07-22T01:34:05.164Z,14.16
2023-07-22T01:36:31.824Z,14.14
2023-07-22T01:38:58.404Z,14.11
2023-07-22T01:41:25.101Z,14.08
2023-07-22T01:43:51.690Z,14.04
2023-07-22T01:46:18.339Z,14.01
2023-07-22T01:48:45.033Z,13.98
2023-07-22T01:51:12.407Z,13.95
2023-07-22T01:53:39.240Z,13.92
2023-07-22T01:56:06.250Z,13.89
2023-07-22T01:58:33.624Z,13.86
2023-07-22T02:01:00.743Z,13.84
2023-07-22T02:03:28.586Z,13.80
2023-07-22T02:06:02.502Z,13.76
2023-07-22T02:08:29.096Z,13.75
2023-07-22T02:10:55.753Z,13.72
2023-07-22T02:13:22.340Z,13.69
2023-07-22T02:15:48.910Z,13.65
2023-07-22T02:18:15.488Z,13.65
2023-07-22T02:20:44.046Z,13.64
2023-07-22T02:23:11.143Z,13.63
2023-07-22T02:25:37.835Z,13.62
2023-07-22T02:28:04.752Z,13.60
2023-07-22T02:30:31.598Z,13.60
2023-07-22T02:32:58.263Z,13.58
2023-07-22T02:35:24.839Z,13.58
2023-07-22T02:37:51.435Z,13.60
2023-07-22T02:40:17.986Z,13.59
2023-07-22T02:42:44.659Z,13.60
2023-07-22T02:45:11.420Z,13.59
2023-07-22T02:47:38.269Z,13.58
2023-07-22T02:50:06.028Z,13.56
2023-07-22T02:52:32.856Z,13.56
2023-07-22T02:55:15.900Z,13.52
2023-07-22T02:57:43.163Z,13.52
2023-07-22T03:00:10.232Z,13.52
2023-07-22T03:02:37.053Z,13.49
2023-07-22T03:05:09.327Z,13.47
2023-07-22T03:07:37.673Z,13.46
2023-07-22T03:10:05.897Z,13.45
2023-07-22T03:12:33.599Z,13.43
2023-07-22T03:15:00.223Z,13.44
2023-07-22T03:17:27.542Z,13.43
2023-07-22T03:19:54.204Z,13.43
2023-07-22T03:22:20.860Z,13.45
2023-07-22T03:24:47.597Z,13.46
2023-07-22T03:27:17.430Z,13.47
2023-07-22T03:29:44.946Z,13.49
2023-07-22T03:32:11.554Z,13.49
2023-07-22T03:34:38.233Z,13.49
2023-07-22T03:37:04.948Z,13.51
2023-07-22T03:39:31.936Z,13.52
2023-07-22T03:41:58.556Z,13.52
2023-07-22T03:44:27.008Z,13.52
2023-07-22T03:46:53.689Z,13.52
2023-07-22T03:49:20.341Z,13.51
2023-07-22T03:51:46.908Z,13.50
2023-07-22T03:54:13.441Z,13.48
2023-07-22T03:56:42.720Z,13.45
2023-07-22T03:59:09.372Z,13.43
2023-07-22T04:01:36.059Z,13.39
2023-07-22T04:04:02.779Z,13.38
2023-07-22T04:06:29.764Z,13.37
2023-07-22T04:08:56.588Z,13.35
2023-07-22T04:11:23.370Z,13.35
2023-07-22T04:13:50.056Z,13.36
2023-07-22T04:16:16.732Z,13.37
2023-07-22T04:18:43.323Z,13.39
2023-07-22T04:21:09.912Z,13.40
2023-07-22T04:23:36.613Z,13.43
2023-07-22T04:26:08.911Z,13.46
2023-07-22T04:28:36.034Z,13.47
2023-07-22T04:31:03.929Z,13.49
2023-07-22T04:33:30.857Z,13.53
2023-07-22T04:36:00.317Z,13.56
2023-07-22T04:38:27.288Z,13.61
2023-07-22T04:40:53.981Z,13.64
2023-07-22T04:43:22.969Z,13.69
2023-07-22T04:45:50.177Z,13.74
2023-07-22T04:48:18.907Z,13.80
2023-07-22T04:50:46.183Z,13.85
2023-07-22T04:53:17.068Z,13.91
2023-07-22T04:55:43.690Z,13.97
2023-07-22T04:58:11.900Z,14.04
2023-07-22T05:00:38.908Z,14.10
2023-07-22T05:03:06.134Z,14.16
2023-07-22T05:05:33.487Z,14.22
2023-07-22T05:08:00.089Z,14.29
2023-07-22T05:10:26.827Z,14.35
2023-07-22T05:12:53.511Z,14.40
2023-07-22T05:15:20.203Z,14.45
2023-07-22T05:17:47.634Z,14.51
2023-07-22T05:20:14.481Z,14.57
2023-07-22T05:22:41.795Z,14.64
2023-07-22T05:25:10.645Z,14.70
2023-07-22T05:27:37.645Z,14.76
2023-07-22T05:30:07.143Z,14.82
2023-07-22T05:32:37.322Z,14.89
2023-07-22T05:35:06.062Z,14.96
2023-07-22T05:37:33.437Z,15.02
2023-07-22T05:40:00.630Z,15.07
2023-07-22T05:42:27.244Z,15.13
2023-07-22T05:44:56.102Z,15.20
2023-07-22T05:47:23.377Z,15.26
2023-07-22T05:49:50.103Z,15.30
2023-07-22T05:52:18.349Z,15.37
2023-07-22T05:54:45.962Z,15.42
2023-07-22T05:57:12.685Z,15.46
2023-07-22T05:59:40.507Z,15.49
2023-07-22T06:02:09.097Z,15.58
2023-07-22T06:04:35.789Z,15.65
2023-07-22T06:07:02.475Z,15.71
2023-07-22T06:09:29.089Z,15.78
2023-07-22T06:11:55.646Z,15.87
2023-07-22T06:14:22.250Z,15.94
2023-07-22T06:16:49.016Z,16.01
2023-07-22T06:19:15.739Z,16.06
2023-07-22T06:21:42.302Z,16.12
2023-07-22T06:24:09.073Z,16.17
2023-07-22T06:26:35.676Z,16.23
2023-07-22T06:29:03.497Z,16.34
2023-07-22T06:31:31.736Z,16.65
2023-07-22T06:34:00.520Z,16.92
2023-07-22T06:36:28.419Z,17.18
2023-07-22T06:38:55.926Z,17.45
2023-07-22T06:41:25.032Z,17.68
2023-07-22T06:43:52.001Z,17.86
2023-07-22T06:46:19.075Z,18.00
2023-07-22T06:48:45.774Z,18.14
2023-07-22T06:51:12.361Z,18.32
2023-07-22T06:53:38.945Z,18.50
2023-07-22T06:56:05.646Z,18.64
2023-07-22T06:58:32.271Z,18.82
2023-07-22T07:00:58.864Z,18.95
2023-07-22T07:03:25.755Z,19.02
2023-07-22T07:05:54.122Z,19.11
2023-07-22T07:08:20.874Z,19.15
2023-07-22T07:10:47.463Z,19.21
2023-07-22T07:13:14.123Z,19.15
2023-07-22T07:15:40.861Z,19.18
2023-07-22T07:18:08.636Z,19.06
2023-07-22T07:20:35.269Z,19.07
2023-07-22T07:23:01.816Z,19.30
2023-07-22T07:25:28.402Z,19.59
2023-07-22T07:27:55.026Z,19.71
2023-07-22T07:30:21.663Z,19.79
2023-07-22T07:32:48.319Z,19.77
2023-07-22T07:35:14.943Z,19.68
2023-07-22T07:37:41.679Z,19.54
2023-07-22T07:40:09.474Z,19.48
2023-07-22T07:42:36.103Z,19.45
2023-07-22T07:45:02.690Z,19.46
2023-07-22T07:47:29.349Z,19.51
2023-07-22T07:49:56.047Z,19.45
2023-07-22T07:52:22.659Z,19.41
2023-07-22T07:54:49.233Z,19.43
2023-07-22T07:57:15.964Z,19.42
2023-07-22T07:59:42.633Z,19.42
2023-07-22T08:02:10.529Z,19.41
2023-07-22T08:04:37.774Z,19.38
2023-07-22T08:07:06.977Z,19.41
2023-07-22T08:09:33.621Z,19.43
2023-07-22T08:12:00.225Z,19.44
2023-07-22T08:14:26.782Z,19.54
2023-07-22T08:16:53.925Z,19.61
2023-07-22T08:19:20.551Z,19.77
2023-07-22T08:21:47.208Z,19.98
2023-07-22T08:24:15.108Z,20.16
2023-07-22T08:26:41.688Z,20.29
2023-07-22T08:29:08.356Z,20.43
2023-07-22T08:31:35.087Z,20.69
2023-07-22T08:34:01.728Z,20.94
2023-07-22T08:36:28.657Z,21.11
2023-07-22T08:38:55.572Z,21.20
2023-07-22T08:41:23.818Z,21.28
2023-07-22T08:43:52.116Z,21.36
2023-07-22T08:46:23.545Z,21.43
2023-07-22T08:48:54.396Z,21.48
2023-07-22T08:51:24.589Z,21.53
2023-07-22T08:56:21.487Z,21.64
2023-07-22T08:58:51.948Z,21.64
2023-07-22T09:01:18.795Z,21.59
2023-07-22T09:03:51.419Z,21.65
2023-07-22T09:06:19.182Z,21.60
2023-07-22T09:08:46.899Z,21.45
2023-07-22T09:11:13.765Z,21.42
2023-07-22T09:13:44.734Z,21.43
2023-07-22T09:16:13.794Z,21.46
2023-07-22T09:18:40.470Z,21.57
2023-07-22T09:21:07.061Z,21.52
2023-07-22T09:23:35.176Z,21.40
2023-07-22T09:26:18.866Z,21.35
2023-07-22T09:28:56.657Z,21.33
2023-07-22T09:31:25.648Z,21.28
2023-07-22T09:33:56.475Z,21.27
2023-07-22T09:36:26.148Z,21.26
2023-07-22T09:39:04.350Z,21.31
2023-07-22T09:41:32.309Z,21.31
2023-07-22T09:44:04.714Z,21.30
2023-07-22T09:46:35.863Z,21.26
2023-07-22T09:49:09.064Z,21.14
2023-07-22T09:51:52.960Z,21.07
2023-07-22T09:54:30.248Z,21.00
2023-07-22T09:56:56.914Z,20.97
2023-07-22T09:59:25.306Z,20.99
2023-07-22T10:01:53.693Z,20.95
2023-07-22T10:04:25.360Z,20.94
2023-07-22T10:06:52.488Z,20.94
2023-07-22T10:09:21.227Z,20.95
2023-07-22T10:11:48.872Z,20.88
2023-07-22T10:14:16.267Z,20.91
2023-07-22T10:16:43.631Z,20.89
2023-07-22T10:19:12.361Z,20.91
2023-07-22T10:21:40.777Z,20.92
2023-07-22T10:24:08.633Z,20.94
2023-07-22T10:26:46.817Z,21.03
2023-07-22T10:29:15.647Z,21.11
2023-07-22T10:31:42.527Z,21.16
2023-07-22T10:34:09.353Z,21.27
2023-07-22T10:36:37.623Z,21.25
2023-07-22T10:39:05.030Z,21.18
2023-07-22T10:41:34.000Z,21.14
2023-07-22T10:44:02.075Z,21.10
2023-07-22T10:46:44.439Z,21.01
2023-07-22T10:49:17.184Z,20.91
2023-07-22T10:51:52.336Z,20.98
2023-07-22T10:54:37.581Z,20.96
2023-07-22T10:57:23.091Z,20.99
2023-07-22T10:59:53.760Z,20.91
2023-07-22T11:02:30.744Z,20.91
2023-07-22T11:05:01.364Z,20.79
2023-07-22T11:07:43.589Z,20.66
2023-07-22T11:10:20.372Z,20.44
2023-07-22T11:12:49.217Z,20.26
2023-07-22T11:15:20.803Z,20.18
2023-07-22T11:38:57.989Z,20.58
2023-07-22T11:41:27.850Z,20.61
2023-07-22T11:43:59.974Z,20.62
2023-07-22T11:46:30.244Z,20.67
2023-07-22T11:49:00.179Z,20.80
2023-07-22T11:51:30.759Z,21.03
2023-07-22T11:53:59.923Z,21.25
2023-07-22T11:56:30.645Z,21.30
2023-07-22T11:59:00.035Z,21.27
2023-07-22T12:01:35.041Z,21.14
2023-07-22T12:04:04.436Z,20.98
2023-07-22T12:06:34.394Z,20.82
2023-07-22T12:09:03.729Z,20.73
2023-07-22T12:11:36.168Z,20.54
2023-07-22T12:14:16.095Z,20.36
2023-07-22T12:16:45.833Z,20.32
2023-07-22T12:19:15.033Z,20.22
2023-07-22T12:21:44.226Z,20.12
2023-07-22T12:24:16.996Z,20.08
2023-07-22T12:26:46.274Z,20.05
2023-07-22T12:29:15.504Z,20.11
2023-07-22T12:31:44.737Z,20.14
2023-07-22T12:34:13.974Z,20.17
2023-07-22T12:36:43.324Z,20.18
2023-07-22T12:39:12.715Z,20.20
2023-07-22T12:41:42.002Z,20.18
2023-07-22T12:44:11.370Z,20.18
2023-07-22T12:46:40.651Z,20.10
2023-07-22T12:49:09.910Z,19.99
2023-07-22T12:51:39.096Z,19.95
2023-07-22T12:54:08.323Z,19.84
2023-07-22T12:56:40.498Z,19.77
2023-07-22T12:59:09.721Z,19.68
2023-07-22T13:01:42.378Z,19.65
2023-07-22T13:04:11.626Z,19.62
2023-07-22T13:06:40.870Z,19.58
2023-07-22T13:09:10.842Z,19.56
2023-07-22T13:11:40.312Z,19.47
2023-07-22T13:14:09.608Z,19.39
2023-07-22T13:16:38.777Z,19.32
2023-07-22T13:19:07.962Z,19.18
2023-07-22T13:21:37.192Z,19.08
2023-07-22T13:24:06.634Z,19.00
2023-07-22T13:26:40.411Z,18.95
2023-07-22T13:29:11.306Z,18.93
2023-07-22T13:31:41.361Z,18.90
2023-07-22T13:34:10.551Z,18.90
2023-07-22T13:36:39.771Z,18.87
2023-07-22T13:39:09.011Z,18.83
2023-07-22T13:41:38.271Z,18.78
2023-07-22T13:44:08.109Z,18.68
2023-07-22T13:46:37.305Z,18.60
2023-07-22T13:49:06.601Z,18.52
2023-07-22T13:51:35.863Z,18.49
2023-07-22T13:54:05.070Z,18.44
2023-07-22T13:56:34.244Z,18.41
2023-07-22T13:59:05.633Z,18.38
2023-07-22T14:01:34.824Z,18.33
2023-07-22T14:04:04.046Z,18.36
2023-07-22T14:06:34.791Z,18.39
2023-07-22T14:09:04.544Z,18.39
2023-07-22T14:11:33.783Z,18.37
2023-07-22T14:14:02.984Z,18.43
2023-07-22T14:16:33.010Z,18.42
2023-07-22T14:19:02.233Z,18.48
2023-07-22T14:21:31.439Z,18.53
2023-07-22T14:24:01.098Z,18.50
2023-07-22T14:26:30.534Z,18.55
2023-07-22T14:29:00.101Z,18.60
2023-07-22T14:31:29.683Z,18.60
2023-07-22T14:33:59.153Z,18.67
2023-07-22T14:36:29.550Z,18.73
2023-07-22T14:38:59.654Z,18.75
2023-07-22T14:41:29.504Z,18.82
2023-07-22T14:43:59.565Z,18.83
2023-07-22T14:46:29.126Z,18.86
2023-07-22T14:48:59.778Z,18.86
2023-07-22T14:51:29.514Z,18.82
2023-07-22T14:53:59.277Z,18.82
2023-07-22T14:56:28.487Z,18.81
2023-07-22T14:58:57.794Z,18.85
2023-07-22T15:01:27.347Z,18.88
2023-07-22T15:03:57.070Z,18.91
2023-07-22T15:06:26.824Z,18.90
2023-07-22T15:08:56.023Z,18.84
2023-07-22T15:11:25.801Z,18.84
2023-07-22T15:13:55.191Z,18.79
2023-07-22T15:16:24.349Z,18.75
2023-07-22T15:18:53.597Z,18.70
2023-07-22T15:21:22.758Z,18.66
2023-07-22T15:23:52.125Z,18.56
2023-07-22T15:26:21.631Z,18.48
2023-07-22T15:28:51.026Z,18.46
2023-07-22T15:31:20.556Z,18.37
2023-07-22T15:33:50.760Z,18.30
2023-07-22T15:36:20.030Z,18.26
2023-07-22T15:38:49.259Z,18.26
2023-07-22T15:41:18.566Z,18.29
2023-07-22T15:43:48.202Z,18.31
2023-07-22T15:46:17.537Z,18.33
2023-07-22T15:48:47.057Z,18.38
2023-07-22T15:51:16.331Z,18.43
2023-07-22T15:53:45.496Z,18.46
2023-07-22T15:56:14.782Z,18.50
2023-07-22T15:58:44.504Z,18.58
2023-07-22T16:01:13.970Z,18.69
2023-07-22T16:03:51.554Z,18.67
2023-07-22T16:06:31.752Z,18.74
2023-07-22T16:09:02.474Z,18.79
2023-07-22T16:11:31.952Z,18.84
2023-07-22T16:14:01.465Z,18.84
2023-07-22T16:16:30.724Z,18.83
2023-07-22T16:19:00.428Z,18.87
2023-07-22T16:21:29.973Z,18.89
2023-07-22T16:23:59.641Z,18.94
2023-07-22T16:26:28.844Z,19.01
2023-07-22T16:28:58.004Z,19.09
2023-07-22T16:31:27.518Z,19.12
2023-07-22T16:33:57.439Z,19.15
2023-07-22T16:36:26.602Z,19.15
2023-07-22T16:38:55.988Z,19.16
2023-07-22T16:41:25.408Z,19.17
2023-07-22T16:43:54.880Z,19.21
2023-07-22T16:46:24.298Z,19.24
2023-07-22T16:48:53.595Z,19.26
2023-07-22T16:51:24.027Z,19.28
2023-07-22T16:53:54.769Z,19.30
2023-07-22T16:56:23.982Z,19.28
2023-07-22T16:58:53.180Z,19.26
2023-07-22T17:01:22.344Z,19.22
2023-07-22T17:03:51.739Z,19.24
2023-07-22T17:06:21.088Z,19.23
2023-07-22T17:08:50.303Z,19.19
2023-07-22T17:11:19.674Z,19.19
2023-07-22T17:13:48.910Z,19.20
2023-07-22T17:16:18.170Z,19.19
2023-07-22T17:18:47.416Z,19.19
2023-07-22T17:21:16.666Z,19.16
2023-07-22T17:23:45.962Z,19.13
2023-07-22T17:26:15.193Z,19.09
2023-07-22T17:28:44.548Z,19.07
2023-07-22T17:31:14.097Z,19.08
2023-07-22T17:33:43.480Z,19.03
2023-07-22T17:36:12.690Z,18.98
2023-07-22T17:38:41.845Z,18.98
2023-07-22T17:41:11.313Z,18.95
2023-07-22T17:43:40.571Z,18.89
2023-07-22T17:46:09.909Z,18.88
2023-07-22T17:48:39.072Z,18.83
2023-07-22T17:51:08.269Z,18.77
2023-07-22T17:53:37.517Z,18.70
2023-07-22T17:56:07.429Z,18.66
2023-07-22T17:58:36.606Z,18.62
2023-07-22T18:01:05.804Z,18.59
2023-07-22T18:03:37.965Z,18.54
2023-07-22T18:06:07.262Z,18.49
2023-07-22T18:08:36.498Z,18.42
2023-07-22T18:11:05.672Z,18.35
2023-07-22T18:13:35.042Z,18.31
2023-07-22T18:16:04.294Z,18.24
2023-07-22T18:18:33.491Z,18.21
2023-07-22T18:21:03.018Z,18.17
2023-07-22T18:23:32.226Z,18.11
2023-07-22T18:26:01.429Z,18.04
2023-07-22T18:28:30.775Z,18.00
2023-07-22T18:31:00.169Z,17.94
2023-07-22T18:33:29.509Z,17.89
2023-07-22T18:35:59.319Z,17.82
2023-07-22T18:38:28.855Z,17.78
2023-07-22T18:40:58.213Z,17.71
2023-07-22T18:43:27.705Z,17.63
2023-07-22T18:45:56.880Z,17.58
2023-07-22T18:48:26.039Z,17.57
2023-07-22T18:50:58.667Z,17.53
2023-07-22T18:53:27.823Z,17.51
2023-07-22T18:55:57.050Z,17.49
2023-07-22T18:58:26.261Z,17.45
2023-07-22T19:00:55.516Z,17.44
2023-07-22T19:03:25.607Z,17.44
2023-07-22T19:05:55.745Z,17.40
2023-07-22T19:08:28.175Z,17.36
2023-07-22T19:10:57.409Z,17.33
2023-07-22T19:13:26.708Z,17.23
2023-07-22T19:15:57.419Z,17.13
2023-07-22T19:18:26.767Z,17.10
2023-07-22T19:21:01.888Z,17.06
2023-07-22T19:23:33.425Z,17.02
2023-07-22T19:26:04.850Z,16.97
2023-07-22T19:28:36.128Z,16.95
2023-07-22T19:31:05.311Z,16.94
2023-07-22T19:33:34.606Z,16.92
2023-07-22T19:36:09.635Z,16.90
2023-07-22T19:38:39.466Z,16.89
2023-07-22T19:41:11.293Z,16.89
2023-07-22T19:43:43.196Z,16.89
2023-07-22T19:46:15.306Z,16.90
2023-07-22T19:48:45.599Z,16.90
2023-07-22T19:51:15.801Z,16.92
2023-07-22T19:53:46.239Z,16.92
2023-07-22T19:56:16.117Z,16.94
2023-07-22T19:58:45.355Z,16.92
2023-07-22T20:01:16.396Z,16.90
2023-07-22T20:03:47.033Z,16.89
2023-07-22T20:06:16.367Z,16.86
2023-07-22T20:08:48.320Z,16.82
2023-07-22T20:11:17.563Z,16.83
2023-07-22T20:13:46.783Z,16.78
2023-07-22T20:16:16.237Z,16.74
2023-07-22T20:18:45.540Z,16.73
2023-07-22T20:21:14.848Z,16.69
2023-07-22T20:23:46.012Z,16.68
2023-07-22T20:26:15.266Z,16.66
2023-07-22T20:28:46.735Z,16.62
2023-07-22T20:31:16.048Z,16.63
2023-07-22T20:33:45.323Z,16.60
2023-07-22T20:36:17.148Z,16.58
2023-07-22T20:38:46.671Z,16.54
2023-07-22T20:41:18.856Z,16.52
2023-07-22T20:43:48.115Z,16.53
2023-07-22T20:46:17.349Z,16.49
2023-07-22T20:48:46.621Z,16.46
2023-07-22T20:51:18.131Z,16.42
2023-07-22T20:53:47.401Z,16.37
2023-07-22T20:56:16.945Z,16.33
2023-07-22T20:58:46.119Z,16.30
2023-07-22T21:01:15.547Z,16.28
2023-07-22T21:03:44.733Z,16.28
2023-07-22T21:06:13.938Z,16.25
2023-07-22T21:08:43.256Z,16.22
2023-07-22T21:11:12.551Z,16.19
2023-07-22T21:13:41.750Z,16.17
2023-07-22T21:16:10.904Z,16.13
2023-07-22T21:18:40.138Z,16.12
2023-07-22T21:21:10.278Z,16.08
2023-07-22T21:23:39.495Z,16.05
2023-07-22T21:26:08.757Z,16.05
2023-07-22T21:28:37.966Z,16.06
2023-07-22T21:31:07.203Z,16.04
2023-07-22T21:33:37.560Z,16.03
2023-07-22T21:36:13.023Z,16.01
2023-07-22T21:38:43.205Z,15.99
2023-07-22T21:41:12.366Z,15.97
2023-07-22T21:43:41.925Z,15.97
2023-07-22T21:46:11.295Z,15.96
2023-07-22T21:48:40.502Z,15.96
2023-07-22T21:51:09.693Z,15.95
2023-07-22T21:53:38.833Z,15.98
2023-07-22T21:56:07.993Z,15.99
2023-07-22T21:58:37.200Z,16.01
2023-07-22T22:01:07.343Z,16.00
2023-07-22T22:03:36.532Z,16.01
2023-07-22T22:06:05.829Z,16.00
2023-07-22T22:08:35.162Z,16.03
2023-07-22T22:11:07.981Z,16.01
2023-07-22T22:13:37.841Z,16.02
2023-07-22T22:16:07.046Z,16.02
2023-07-22T22:18:36.367Z,16.02
2023-07-22T22:21:05.670Z,16.02
2023-07-22T22:23:34.920Z,16.02
2023-07-22T22:26:04.270Z,16.02
2023-07-22T22:28:33.518Z,16.00
2023-07-22T22:31:03.804Z,16.01
2023-07-22T22:33:33.101Z,16.01
2023-07-22T22:36:02.399Z,16.02
2023-07-22T22:38:31.585Z,16.00
2023-07-22T22:41:00.810Z,16.00
2023-07-22T22:43:30.064Z,16.01
2023-07-22T22:45:59.270Z,16.01
2023-07-22T22:48:28.532Z,16.01
2023-07-22T22:50:57.795Z,16.01
2023-07-22T22:53:27.087Z,16.01
2023-07-22T22:55:57.718Z,16.02
2023-07-22T22:58:26.880Z,16.02
2023-07-22T23:00:56.238Z,16.03
2023-07-22T23:03:25.557Z,16.02
2023-07-22T23:05:54.803Z,16.00
2023-07-22T23:08:24.013Z,16.02
2023-07-22T23:10:53.229Z,16.03
2023-07-22T23:13:22.402Z,15.99
2023-07-22T23:15:51.584Z,15.99
2023-07-22T23:18:21.382Z,16.00
2023-07-22T23:20:50.582Z,16.00
2023-07-22T23:23:19.746Z,15.99
2023-07-22T23:25:48.900Z,16.00
2023-07-22T23:28:18.228Z,15.98
2023-07-22T23:30:47.658Z,15.96
2023-07-22T23:33:24.466Z,15.96
2023-07-22T23:35:57.551Z,15.95
2023-07-22T23:38:27.621Z,15.95
2023-07-22T23:40:58.097Z,15.96
2023-07-22T23:43:27.850Z,15.97
2023-07-22T23:45:58.224Z,15.96
2023-07-22T23:48:27.495Z,15.97
2023-07-22T23:50:57.192Z,15.95
2023-07-22T23:53:27.172Z,15.94
2023-07-22T23:55:56.437Z,15.94
2023-07-22T23:58:25.683Z,15.94
